sensor_id;sensor_type;location;lat;lon;timestamp;temperature;humidity
3790;DHT22;1910;49.042;9.028;2023-05-16T00:01:10;12.40;99.90
3790;DHT22;1910;49.042;9.028;2023-05-16T00:03:37;12.40;99.90
3790;DHT22;1910;49.042;9.028;2023-05-16T00:06:03;12.40;99.90
3790;DHT22;1910;49.042;9.028;2023-05-16T00:08:29;12.30;99.90
3790;DHT22;1910;49.042;9.028;2023-05-16T00:10:55;12.30;99.90
3790;DHT22;1910;49.042;9.028;2023-05-16T00:13:20;12.30;99.90
3790;DHT22;1910;49.042;9.028;2023-05-16T00:15:53;12.30;99.90
3790;DHT22;1910;49.042;9.028;2023-05-16T00:18:19;12.30;99.90
3790;DHT22;1910;49.042;9.028;2023-05-16T00:20:47;12.30;99.90
3790;DHT22;1910;49.042;9.028;2023-05-16T00:23:13;12.20;99.90
3790;DHT22;1910;49.042;9.028;2023-05-16T00:25:39;12.20;99.90
3790;DHT22;1910;49.042;9.028;2023-05-16T00:28:05;12.20;99.90
3790;DHT22;1910;49.042;9.028;2023-05-16T00:30:31;12.20;99.90
3790;DHT22;1910;49.042;9.028;2023-05-16T00:32:56;12.10;99.90
3790;DHT22;1910;49.042;9.028;2023-05-16T00:35:22;12.10;99.90
3790;DHT22;1910;49.042;9.028;2023-05-16T00:37:48;12.10;99.90
3790;DHT22;1910;49.042;9.028;2023-05-16T00:40:14;12.10;99.90
3790;DHT22;1910;49.042;9.028;2023-05-16T00:42:40;12.10;99.90
3790;DHT22;1910;49.042;9.028;2023-05-16T00:45:06;12.10;99.90
3790;DHT22;1910;49.042;9.028;2023-05-16T00:47:31;12.10;99.90
3790;DHT22;1910;49.042;9.028;2023-05-16T00:49:57;12.10;99.90
3790;DHT22;1910;49.042;9.028;2023-05-16T00:52:23;12.10;99.90
3790;DHT22;1910;49.042;9.028;2023-05-16T00:54:50;12.00;99.90
3790;DHT22;1910;49.042;9.028;2023-05-16T00:57:16;12.00;99.90
3790;DHT22;1910;49.042;9.028;2023-05-16T00:59:42;12.00;99.90
3790;DHT22;1910;49.042;9.028;2023-05-16T01:02:08;12.00;99.90
3790;DHT22;1910;49.042;9.028;2023-05-16T01:04:34;12.00;99.90
3790;DHT22;1910;49.042;9.028;2023-05-16T01:07:01;11.90;99.90
3790;DHT22;1910;49.042;9.028;2023-05-16T01:09:27;11.90;99.90
3790;DHT22;1910;49.042;9.028;2023-05-16T01:14:53;11.90;99.90
3790;DHT22;1910;49.042;9.028;2023-05-16T01:20:27;11.80;99.90
3790;DHT22;1910;49.042;9.028;2023-05-16T01:23:27;11.80;99.90
3790;DHT22;1910;49.042;9.028;2023-05-16T01:28:23;11.80;99.90
3790;DHT22;1910;49.042;9.028;2023-05-16T01:30:50;11.80;99.90
3790;DHT22;1910;49.042;9.028;2023-05-16T01:33:16;11.80;99.90
3790;DHT22;1910;49.042;9.028;2023-05-16T01:38:26;11.70;99.90
3790;DHT22;1910;49.042;9.028;2023-05-16T01:41:24;11.70;99.90
3790;DHT22;1910;49.042;9.028;2023-05-16T01:44:01;11.70;99.90
3790;DHT22;1910;49.042;9.028;2023-05-16T01:46:34;11.70;99.90
3790;DHT22;1910;49.042;9.028;2023-05-16T01:49:19;11.70;99.90
3790;DHT22;1910;49.042;9.028;2023-05-16T01:51:53;11.70;99.90
3790;DHT22;1910;49.042;9.028;2023-05-16T01:54:23;11.70;99.90
3790;DHT22;1910;49.042;9.028;2023-05-16T01:56:55;11.70;99.90
3790;DHT22;1910;49.042;9.028;2023-05-16T01:59:22;11.60;99.90
3790;DHT22;1910;49.042;9.028;2023-05-16T02:01:48;11.60;99.90
3790;DHT22;1910;49.042;9.028;2023-05-16T02:04:14;11.60;99.90
3790;DHT22;1910;49.042;9.028;2023-05-16T02:06:40;11.60;99.90
3790;DHT22;1910;49.042;9.028;2023-05-16T02:09:06;11.60;99.90
3790;DHT22;1910;49.042;9.028;2023-05-16T02:11:33;11.60;99.90
3790;DHT22;1910;49.042;9.028;2023-05-16T02:13:58;11.60;99.90
3790;DHT22;1910;49.042;9.028;2023-05-16T02:16:24;11.50;99.90
3790;DHT22;1910;49.042;9.028;2023-05-16T02:18:49;11.60;99.90
3790;DHT22;1910;49.042;9.028;2023-05-16T02:21:15;11.60;99.90
3790;DHT22;1910;49.042;9.028;2023-05-16T02:23:40;11.60;99.90
3790;DHT22;1910;49.042;9.028;2023-05-16T02:26:06;11.60;99.90
3790;DHT22;1910;49.042;9.028;2023-05-16T02:28:31;11.50;99.90
3790;DHT22;1910;49.042;9.028;2023-05-16T02:30:58;11.50;99.90
3790;DHT22;1910;49.042;9.028;2023-05-16T02:33:27;11.50;99.90
3790;DHT22;1910;49.042;9.028;2023-05-16T02:35:53;11.50;99.90
3790;DHT22;1910;49.042;9.028;2023-05-16T02:38:19;11.50;99.90
3790;DHT22;1910;49.042;9.028;2023-05-16T02:40:48;11.50;99.90
3790;DHT22;1910;49.042;9.028;2023-05-16T02:43:14;11.40;99.90
3790;DHT22;1910;49.042;9.028;2023-05-16T02:45:40;11.40;99.90
3790;DHT22;1910;49.042;9.028;2023-05-16T02:48:06;11.40;99.90
3790;DHT22;1910;49.042;9.028;2023-05-16T02:50:32;11.40;99.90
3790;DHT22;1910;49.042;9.028;2023-05-16T02:55:27;11.40;99.90
3790;DHT22;1910;49.042;9.028;2023-05-16T02:57:52;11.40;99.90
3790;DHT22;1910;49.042;9.028;2023-05-16T03:00:18;11.30;99.90
3790;DHT22;1910;49.042;9.028;2023-05-16T03:05:10;11.30;99.90
3790;DHT22;1910;49.042;9.028;2023-05-16T03:07:36;11.30;99.90
3790;DHT22;1910;49.042;9.028;2023-05-16T03:10:03;11.30;99.90
3790;DHT22;1910;49.042;9.028;2023-05-16T03:12:28;11.30;99.90
3790;DHT22;1910;49.042;9.028;2023-05-16T03:14:54;11.30;99.90
3790;DHT22;1910;49.042;9.028;2023-05-16T03:17:19;11.20;99.90
3790;DHT22;1910;49.042;9.028;2023-05-16T03:19:46;11.20;99.90
3790;DHT22;1910;49.042;9.028;2023-05-16T03:22:12;11.20;99.90
3790;DHT22;1910;49.042;9.028;2023-05-16T03:24:37;11.20;99.90
3790;DHT22;1910;49.042;9.028;2023-05-16T03:27:03;11.20;99.90
3790;DHT22;1910;49.042;9.028;2023-05-16T03:29:29;11.20;99.90
3790;DHT22;1910;49.042;9.028;2023-05-16T03:31:55;11.20;99.90
3790;DHT22;1910;49.042;9.028;2023-05-16T03:34:21;11.20;99.90
3790;DHT22;1910;49.042;9.028;2023-05-16T03:36:48;11.20;99.90
3790;DHT22;1910;49.042;9.028;2023-05-16T03:39:14;11.20;99.90
3790;DHT22;1910;49.042;9.028;2023-05-16T03:41:40;11.20;99.90
3790;DHT22;1910;49.042;9.028;2023-05-16T03:44:05;11.20;99.90
3790;DHT22;1910;49.042;9.028;2023-05-16T03:46:31;11.20;99.90
3790;DHT22;1910;49.042;9.028;2023-05-16T03:48:56;11.20;99.90
3790;DHT22;1910;49.042;9.028;2023-05-16T03:51:22;11.10;99.90
3790;DHT22;1910;49.042;9.028;2023-05-16T03:53:47;11.20;99.90
3790;DHT22;1910;49.042;9.028;2023-05-16T03:58:39;11.20;99.90
3790;DHT22;1910;49.042;9.028;2023-05-16T04:01:04;11.20;99.90
3790;DHT22;1910;49.042;9.028;2023-05-16T04:03:30;11.30;99.90
3790;DHT22;1910;49.042;9.028;2023-05-16T04:08:24;11.20;99.90
3790;DHT22;1910;49.042;9.028;2023-05-16T04:10:50;11.20;99.90
3790;DHT22;1910;49.042;9.028;2023-05-16T04:13:16;11.20;99.90
3790;DHT22;1910;49.042;9.028;2023-05-16T04:15:41;11.20;99.90
3790;DHT22;1910;49.042;9.028;2023-05-16T04:18:08;11.20;99.90
3790;DHT22;1910;49.042;9.028;2023-05-16T04:25:26;11.20;99.90
3790;DHT22;1910;49.042;9.028;2023-05-16T04:30:18;11.20;99.90
3790;DHT22;1910;49.042;9.028;2023-05-16T04:32:43;11.20;99.90
3790;DHT22;1910;49.042;9.028;2023-05-16T04:35:09;11.20;99.90
3790;DHT22;1910;49.042;9.028;2023-05-16T04:37:35;11.20;99.90
3790;DHT22;1910;49.042;9.028;2023-05-16T04:40:01;11.20;99.90
3790;DHT22;1910;49.042;9.028;2023-05-16T04:42:26;11.20;99.90
3790;DHT22;1910;49.042;9.028;2023-05-16T04:44:52;11.30;99.90
3790;DHT22;1910;49.042;9.028;2023-05-16T04:47:17;11.30;99.90
3790;DHT22;1910;49.042;9.028;2023-05-16T04:49:43;11.40;99.90
3790;DHT22;1910;49.042;9.028;2023-05-16T04:52:09;11.40;99.90
3790;DHT22;1910;49.042;9.028;2023-05-16T04:54:36;11.50;99.90
3790;DHT22;1910;49.042;9.028;2023-05-16T04:57:02;11.70;99.90
3790;DHT22;1910;49.042;9.028;2023-05-16T04:59:27;11.70;99.90
3790;DHT22;1910;49.042;9.028;2023-05-16T05:01:53;11.60;99.90
3790;DHT22;1910;49.042;9.028;2023-05-16T05:04:18;11.50;99.90
3790;DHT22;1910;49.042;9.028;2023-05-16T05:06:44;11.40;99.90
3790;DHT22;1910;49.042;9.028;2023-05-16T05:09:10;11.40;99.90
3790;DHT22;1910;49.042;9.028;2023-05-16T05:11:35;11.40;99.90
3790;DHT22;1910;49.042;9.028;2023-05-16T05:14:01;11.40;99.90
3790;DHT22;1910;49.042;9.028;2023-05-16T05:16:26;11.50;99.90
3790;DHT22;1910;49.042;9.028;2023-05-16T05:18:52;11.60;99.90
3790;DHT22;1910;49.042;9.028;2023-05-16T05:21:18;11.50;99.90
3790;DHT22;1910;49.042;9.028;2023-05-16T05:23:44;11.50;99.90
3790;DHT22;1910;49.042;9.028;2023-05-16T05:26:10;11.60;99.90
3790;DHT22;1910;49.042;9.028;2023-05-16T05:28:36;11.60;99.90
3790;DHT22;1910;49.042;9.028;2023-05-16T05:31:03;11.60;99.90
3790;DHT22;1910;49.042;9.028;2023-05-16T05:33:29;11.60;99.90
3790;DHT22;1910;49.042;9.028;2023-05-16T05:35:55;11.50;99.90
3790;DHT22;1910;49.042;9.028;2023-05-16T05:38:21;11.60;99.90
3790;DHT22;1910;49.042;9.028;2023-05-16T05:40:47;11.60;99.90
3790;DHT22;1910;49.042;9.028;2023-05-16T05:43:13;11.70;99.90
3790;DHT22;1910;49.042;9.028;2023-05-16T05:45:39;11.70;99.90
3790;DHT22;1910;49.042;9.028;2023-05-16T05:48:05;11.70;99.90
3790;DHT22;1910;49.042;9.028;2023-05-16T05:50:31;11.70;99.90
3790;DHT22;1910;49.042;9.028;2023-05-16T05:52:56;11.70;99.90
3790;DHT22;1910;49.042;9.028;2023-05-16T05:55:22;11.70;99.90
3790;DHT22;1910;49.042;9.028;2023-05-16T05:57:47;11.70;99.90
3790;DHT22;1910;49.042;9.028;2023-05-16T06:00:13;11.70;99.90
3790;DHT22;1910;49.042;9.028;2023-05-16T06:02:38;11.70;99.90
3790;DHT22;1910;49.042;9.028;2023-05-16T06:05:04;11.60;99.90
3790;DHT22;1910;49.042;9.028;2023-05-16T06:07:30;11.50;99.90
3790;DHT22;1910;49.042;9.028;2023-05-16T06:09:56;11.50;99.90
3790;DHT22;1910;49.042;9.028;2023-05-16T06:12:21;11.50;99.90
3790;DHT22;1910;49.042;9.028;2023-05-16T06:14:47;11.40;99.90
3790;DHT22;1910;49.042;9.028;2023-05-16T06:17:12;11.40;99.90
3790;DHT22;1910;49.042;9.028;2023-05-16T06:19:38;11.30;99.90
3790;DHT22;1910;49.042;9.028;2023-05-16T06:22:03;11.20;99.90
3790;DHT22;1910;49.042;9.028;2023-05-16T06:24:29;11.30;99.90
3790;DHT22;1910;49.042;9.028;2023-05-16T06:26:54;11.30;99.90
3790;DHT22;1910;49.042;9.028;2023-05-16T06:29:20;11.30;99.90
3790;DHT22;1910;49.042;9.028;2023-05-16T06:31:45;11.30;99.90
3790;DHT22;1910;49.042;9.028;2023-05-16T06:34:11;11.30;99.90
3790;DHT22;1910;49.042;9.028;2023-05-16T06:36:37;11.40;99.90
3790;DHT22;1910;49.042;9.028;2023-05-16T06:39:02;11.40;99.90
3790;DHT22;1910;49.042;9.028;2023-05-16T06:41:29;11.40;99.90
3790;DHT22;1910;49.042;9.028;2023-05-16T06:43:55;11.40;99.90
3790;DHT22;1910;49.042;9.028;2023-05-16T06:46:21;11.80;99.90
3790;DHT22;1910;49.042;9.028;2023-05-16T06:48:46;11.80;99.90
3790;DHT22;1910;49.042;9.028;2023-05-16T06:51:12;12.00;99.90
3790;DHT22;1910;49.042;9.028;2023-05-16T06:53:38;12.10;99.90
3790;DHT22;1910;49.042;9.028;2023-05-16T06:56:03;12.20;99.90
3790;DHT22;1910;49.042;9.028;2023-05-16T07:00:55;12.10;99.90
3790;DHT22;1910;49.042;9.028;2023-05-16T07:03:20;12.10;99.90
3790;DHT22;1910;49.042;9.028;2023-05-16T07:05:46;12.00;99.90
3790;DHT22;1910;49.042;9.028;2023-05-16T07:08:11;11.90;99.90
3790;DHT22;1910;49.042;9.028;2023-05-16T07:10:38;11.80;99.90
3790;DHT22;1910;49.042;9.028;2023-05-16T07:13:03;11.70;99.90
3790;DHT22;1910;49.042;9.028;2023-05-16T07:15:29;11.70;99.90
3790;DHT22;1910;49.042;9.028;2023-05-16T07:17:55;11.70;99.90
3790;DHT22;1910;49.042;9.028;2023-05-16T07:20:21;11.60;99.90
3790;DHT22;1910;49.042;9.028;2023-05-16T07:22:47;11.50;99.90
3790;DHT22;1910;49.042;9.028;2023-05-16T07:25:12;11.50;99.90
3790;DHT22;1910;49.042;9.028;2023-05-16T07:27:40;11.50;99.90
3790;DHT22;1910;49.042;9.028;2023-05-16T07:30:12;11.40;99.90
3790;DHT22;1910;49.042;9.028;2023-05-16T07:32:38;11.40;99.90
3790;DHT22;1910;49.042;9.028;2023-05-16T07:35:04;11.40;99.90
3790;DHT22;1910;49.042;9.028;2023-05-16T07:37:30;11.30;99.90
3790;DHT22;1910;49.042;9.028;2023-05-16T07:39:56;11.20;99.90
3790;DHT22;1910;49.042;9.028;2023-05-16T07:42:21;11.20;99.90
3790;DHT22;1910;49.042;9.028;2023-05-16T07:44:47;11.00;99.90
3790;DHT22;1910;49.042;9.028;2023-05-16T07:47:12;11.00;99.90
3790;DHT22;1910;49.042;9.028;2023-05-16T07:49:38;11.00;99.90
3790;DHT22;1910;49.042;9.028;2023-05-16T07:52:03;10.90;99.90
3790;DHT22;1910;49.042;9.028;2023-05-16T07:54:29;11.00;99.90
3790;DHT22;1910;49.042;9.028;2023-05-16T07:56:55;11.00;99.90
3790;DHT22;1910;49.042;9.028;2023-05-16T07:59:21;11.00;99.90
3790;DHT22;1910;49.042;9.028;2023-05-16T08:01:47;10.90;99.90
3790;DHT22;1910;49.042;9.028;2023-05-16T08:04:12;10.90;99.90
3790;DHT22;1910;49.042;9.028;2023-05-16T08:06:38;10.90;99.90
3790;DHT22;1910;49.042;9.028;2023-05-16T08:09:04;11.00;99.90
3790;DHT22;1910;49.042;9.028;2023-05-16T08:11:29;11.30;99.90
3790;DHT22;1910;49.042;9.028;2023-05-16T08:13:55;11.10;99.90
3790;DHT22;1910;49.042;9.028;2023-05-16T08:16:20;11.10;99.90
3790;DHT22;1910;49.042;9.028;2023-05-16T08:18:46;11.10;99.90
3790;DHT22;1910;49.042;9.028;2023-05-16T08:21:11;11.10;99.90
3790;DHT22;1910;49.042;9.028;2023-05-16T08:23:38;11.20;99.90
3790;DHT22;1910;49.042;9.028;2023-05-16T08:26:04;11.30;99.90
3790;DHT22;1910;49.042;9.028;2023-05-16T08:28:29;11.40;99.90
3790;DHT22;1910;49.042;9.028;2023-05-16T08:30:55;11.40;99.90
3790;DHT22;1910;49.042;9.028;2023-05-16T08:33:21;11.40;99.90
3790;DHT22;1910;49.042;9.028;2023-05-16T08:35:46;11.40;99.90
3790;DHT22;1910;49.042;9.028;2023-05-16T08:40:42;11.80;99.90
3790;DHT22;1910;49.042;9.028;2023-05-16T08:43:07;12.20;99.90
3790;DHT22;1910;49.042;9.028;2023-05-16T08:45:33;12.20;99.90
3790;DHT22;1910;49.042;9.028;2023-05-16T08:48:00;12.30;99.90
3790;DHT22;1910;49.042;9.028;2023-05-16T08:50:29;12.30;99.90
3790;DHT22;1910;49.042;9.028;2023-05-16T08:55:22;12.10;99.90
3790;DHT22;1910;49.042;9.028;2023-05-16T08:57:50;12.70;99.90
3790;DHT22;1910;49.042;9.028;2023-05-16T09:00:17;12.70;99.90
3790;DHT22;1910;49.042;9.028;2023-05-16T09:02:44;12.80;99.90
3790;DHT22;1910;49.042;9.028;2023-05-16T09:05:14;12.90;99.90
3790;DHT22;1910;49.042;9.028;2023-05-16T09:07:41;12.90;99.90
3790;DHT22;1910;49.042;9.028;2023-05-16T09:10:07;12.90;99.90
3790;DHT22;1910;49.042;9.028;2023-05-16T09:12:33;13.00;99.90
3790;DHT22;1910;49.042;9.028;2023-05-16T09:15:03;13.00;99.90
3790;DHT22;1910;49.042;9.028;2023-05-16T09:17:44;13.00;99.90
3790;DHT22;1910;49.042;9.028;2023-05-16T09:22:38;13.10;99.90
3790;DHT22;1910;49.042;9.028;2023-05-16T09:25:04;13.00;99.90
3790;DHT22;1910;49.042;9.028;2023-05-16T09:27:30;13.00;99.90
3790;DHT22;1910;49.042;9.028;2023-05-16T09:29:57;13.10;99.90
3790;DHT22;1910;49.042;9.028;2023-05-16T09:32:23;12.90;99.90
3790;DHT22;1910;49.042;9.028;2023-05-16T09:34:51;13.00;99.90
3790;DHT22;1910;49.042;9.028;2023-05-16T09:37:18;13.00;99.90
3790;DHT22;1910;49.042;9.028;2023-05-16T09:39:48;13.10;99.90
3790;DHT22;1910;49.042;9.028;2023-05-16T09:42:18;13.20;99.90
3790;DHT22;1910;49.042;9.028;2023-05-16T09:44:54;13.20;99.90
3790;DHT22;1910;49.042;9.028;2023-05-16T09:47:21;13.10;99.90
3790;DHT22;1910;49.042;9.028;2023-05-16T09:49:51;13.10;99.90
3790;DHT22;1910;49.042;9.028;2023-05-16T09:52:17;13.10;99.90
3790;DHT22;1910;49.042;9.028;2023-05-16T09:54:45;13.20;99.90
3790;DHT22;1910;49.042;9.028;2023-05-16T09:57:19;13.50;99.90
3790;DHT22;1910;49.042;9.028;2023-05-16T10:02:13;13.70;99.90
3790;DHT22;1910;49.042;9.028;2023-05-16T10:04:38;13.90;99.90
3790;DHT22;1910;49.042;9.028;2023-05-16T10:07:05;13.80;99.90
3790;DHT22;1910;49.042;9.028;2023-05-16T10:09:34;13.80;99.90
3790;DHT22;1910;49.042;9.028;2023-05-16T10:12:02;13.60;99.90
3790;DHT22;1910;49.042;9.028;2023-05-16T10:14:29;13.60;99.90
3790;DHT22;1910;49.042;9.028;2023-05-16T10:16:58;13.40;99.90
3790;DHT22;1910;49.042;9.028;2023-05-16T10:19:25;13.10;99.90
3790;DHT22;1910;49.042;9.028;2023-05-16T10:21:53;12.50;99.90
3790;DHT22;1910;49.042;9.028;2023-05-16T10:24:30;12.50;99.90
3790;DHT22;1910;49.042;9.028;2023-05-16T10:26:56;12.20;99.90
3790;DHT22;1910;49.042;9.028;2023-05-16T10:29:22;12.00;99.90
3790;DHT22;1910;49.042;9.028;2023-05-16T10:31:49;12.10;99.90
3790;DHT22;1910;49.042;9.028;2023-05-16T10:34:15;12.10;99.90
3790;DHT22;1910;49.042;9.028;2023-05-16T10:36:43;12.20;99.90
3790;DHT22;1910;49.042;9.028;2023-05-16T10:39:09;12.40;99.90
3790;DHT22;1910;49.042;9.028;2023-05-16T10:41:35;12.40;99.90
3790;DHT22;1910;49.042;9.028;2023-05-16T10:44:01;12.30;99.90
3790;DHT22;1910;49.042;9.028;2023-05-16T10:46:27;12.40;99.90
3790;DHT22;1910;49.042;9.028;2023-05-16T10:48:55;12.50;99.90
3790;DHT22;1910;49.042;9.028;2023-05-16T10:53:47;12.90;99.90
3790;DHT22;1910;49.042;9.028;2023-05-16T10:56:21;13.10;99.90
3790;DHT22;1910;49.042;9.028;2023-05-16T10:58:48;13.10;99.90
3790;DHT22;1910;49.042;9.028;2023-05-16T11:01:27;13.00;99.90
3790;DHT22;1910;49.042;9.028;2023-05-16T11:06:33;13.20;99.90
3790;DHT22;1910;49.042;9.028;2023-05-16T11:14:38;13.80;99.90
3790;DHT22;1910;49.042;9.028;2023-05-16T11:17:11;13.90;99.90
3790;DHT22;1910;49.042;9.028;2023-05-16T11:19:43;13.60;99.90
3790;DHT22;1910;49.042;9.028;2023-05-16T11:22:32;13.40;99.90
3790;DHT22;1910;49.042;9.028;2023-05-16T11:25:00;13.10;99.90
3790;DHT22;1910;49.042;9.028;2023-05-16T11:29:57;13.10;99.90
3790;DHT22;1910;49.042;9.028;2023-05-16T11:32:23;13.10;99.90
3790;DHT22;1910;49.042;9.028;2023-05-16T11:34:50;13.30;99.90
3790;DHT22;1910;49.042;9.028;2023-05-16T11:37:17;13.10;99.90
3790;DHT22;1910;49.042;9.028;2023-05-16T11:39:44;13.10;99.90
3790;DHT22;1910;49.042;9.028;2023-05-16T11:42:10;13.00;99.90
3790;DHT22;1910;49.042;9.028;2023-05-16T11:44:38;13.00;99.90
3790;DHT22;1910;49.042;9.028;2023-05-16T11:47:04;13.10;99.90
3790;DHT22;1910;49.042;9.028;2023-05-16T11:49:30;12.60;99.90
3790;DHT22;1910;49.042;9.028;2023-05-16T11:51:56;12.20;99.90
3790;DHT22;1910;49.042;9.028;2023-05-16T11:54:22;12.20;99.90
3790;DHT22;1910;49.042;9.028;2023-05-16T11:56:51;12.00;99.90
3790;DHT22;1910;49.042;9.028;2023-05-16T11:59:17;12.00;99.90
3790;DHT22;1910;49.042;9.028;2023-05-16T12:01:43;11.90;99.90
3790;DHT22;1910;49.042;9.028;2023-05-16T12:04:13;11.90;99.90
3790;DHT22;1910;49.042;9.028;2023-05-16T12:06:39;12.00;99.90
3790;DHT22;1910;49.042;9.028;2023-05-16T12:09:06;12.00;99.90
3790;DHT22;1910;49.042;9.028;2023-05-16T12:11:43;11.80;99.90
3790;DHT22;1910;49.042;9.028;2023-05-16T12:14:11;11.70;99.90
3790;DHT22;1910;49.042;9.028;2023-05-16T12:16:37;11.70;99.90
3790;DHT22;1910;49.042;9.028;2023-05-16T12:19:07;11.60;99.90
3790;DHT22;1910;49.042;9.028;2023-05-16T12:21:33;11.60;99.90
3790;DHT22;1910;49.042;9.028;2023-05-16T12:23:59;11.60;99.90
3790;DHT22;1910;49.042;9.028;2023-05-16T12:26:30;11.60;99.90
3790;DHT22;1910;49.042;9.028;2023-05-16T12:28:57;11.70;99.90
3790;DHT22;1910;49.042;9.028;2023-05-16T12:31:25;11.80;99.90
3790;DHT22;1910;49.042;9.028;2023-05-16T12:33:54;11.90;99.90
3790;DHT22;1910;49.042;9.028;2023-05-16T12:36:20;11.90;99.90
3790;DHT22;1910;49.042;9.028;2023-05-16T12:38:46;12.00;99.90
3790;DHT22;1910;49.042;9.028;2023-05-16T12:41:17;12.10;99.90
3790;DHT22;1910;49.042;9.028;2023-05-16T12:43:43;12.20;99.90
3790;DHT22;1910;49.042;9.028;2023-05-16T12:46:09;12.20;99.90
3790;DHT22;1910;49.042;9.028;2023-05-16T12:48:36;12.20;99.90
3790;DHT22;1910;49.042;9.028;2023-05-16T12:51:14;12.30;99.90
3790;DHT22;1910;49.042;9.028;2023-05-16T12:53:44;12.30;99.90
3790;DHT22;1910;49.042;9.028;2023-05-16T12:56:11;12.40;99.90
3790;DHT22;1910;49.042;9.028;2023-05-16T12:58:37;12.30;99.90
3790;DHT22;1910;49.042;9.028;2023-05-16T13:01:03;12.30;99.90
3790;DHT22;1910;49.042;9.028;2023-05-16T13:03:30;12.30;99.90
3790;DHT22;1910;49.042;9.028;2023-05-16T13:13:15;12.80;99.90
3790;DHT22;1910;49.042;9.028;2023-05-16T13:15:43;12.80;99.90
3790;DHT22;1910;49.042;9.028;2023-05-16T13:18:09;12.90;99.90
3790;DHT22;1910;49.042;9.028;2023-05-16T13:23:00;13.30;99.90
3790;DHT22;1910;49.042;9.028;2023-05-16T13:25:26;13.20;99.90
3790;DHT22;1910;49.042;9.028;2023-05-16T13:27:52;13.30;99.90
3790;DHT22;1910;49.042;9.028;2023-05-16T13:30:17;13.50;99.90
3790;DHT22;1910;49.042;9.028;2023-05-16T13:37:35;13.80;99.90
3790;DHT22;1910;49.042;9.028;2023-05-16T13:42:28;14.20;99.90
3790;DHT22;1910;49.042;9.028;2023-05-16T13:47:20;14.10;99.90
3790;DHT22;1910;49.042;9.028;2023-05-16T13:49:45;14.10;99.90
3790;DHT22;1910;49.042;9.028;2023-05-16T13:54:38;14.00;99.90
3790;DHT22;1910;49.042;9.028;2023-05-16T13:59:31;14.00;99.90
3790;DHT22;1910;49.042;9.028;2023-05-16T14:04:23;14.40;99.90
3790;DHT22;1910;49.042;9.028;2023-05-16T14:06:50;14.70;99.90
3790;DHT22;1910;49.042;9.028;2023-05-16T14:09:15;14.90;99.90
3790;DHT22;1910;49.042;9.028;2023-05-16T14:21:25;14.70;99.90
3790;DHT22;1910;49.042;9.028;2023-05-16T14:23:51;14.70;99.90
3790;DHT22;1910;49.042;9.028;2023-05-16T14:26:16;14.30;99.90
3790;DHT22;1910;49.042;9.028;2023-05-16T14:28:47;14.10;99.90
3790;DHT22;1910;49.042;9.028;2023-05-16T14:31:12;14.10;99.90
3790;DHT22;1910;49.042;9.028;2023-05-16T14:33:38;14.30;99.90
3790;DHT22;1910;49.042;9.028;2023-05-16T14:36:06;14.30;99.90
3790;DHT22;1910;49.042;9.028;2023-05-16T14:38:31;14.20;99.90
3790;DHT22;1910;49.042;9.028;2023-05-16T14:40:57;14.00;99.90
3790;DHT22;1910;49.042;9.028;2023-05-16T14:43:22;14.00;99.90
3790;DHT22;1910;49.042;9.028;2023-05-16T14:45:48;14.10;99.90
3790;DHT22;1910;49.042;9.028;2023-05-16T14:48:13;14.10;99.90
3790;DHT22;1910;49.042;9.028;2023-05-16T14:50:39;13.80;99.90
3790;DHT22;1910;49.042;9.028;2023-05-16T14:53:05;13.50;99.90
3790;DHT22;1910;49.042;9.028;2023-05-16T14:57:56;13.40;99.90
3790;DHT22;1910;49.042;9.028;2023-05-16T15:02:49;13.40;99.90
3790;DHT22;1910;49.042;9.028;2023-05-16T15:05:14;13.40;99.90
3790;DHT22;1910;49.042;9.028;2023-05-16T15:07:40;13.50;99.90
3790;DHT22;1910;49.042;9.028;2023-05-16T15:10:06;13.40;99.90
3790;DHT22;1910;49.042;9.028;2023-05-16T15:12:32;13.40;99.90
3790;DHT22;1910;49.042;9.028;2023-05-16T15:14:57;13.30;99.90
3790;DHT22;1910;49.042;9.028;2023-05-16T15:17:23;13.30;99.90
3790;DHT22;1910;49.042;9.028;2023-05-16T15:22:17;13.40;99.90
3790;DHT22;1910;49.042;9.028;2023-05-16T15:24:42;13.40;99.90
3790;DHT22;1910;49.042;9.028;2023-05-16T15:27:08;13.40;99.90
3790;DHT22;1910;49.042;9.028;2023-05-16T15:29:34;13.40;99.90
3790;DHT22;1910;49.042;9.028;2023-05-16T15:32:02;13.30;99.90
3790;DHT22;1910;49.042;9.028;2023-05-16T15:34:28;13.30;99.90
3790;DHT22;1910;49.042;9.028;2023-05-16T15:36:54;13.30;99.90
3790;DHT22;1910;49.042;9.028;2023-05-16T15:39:19;13.50;99.90
3790;DHT22;1910;49.042;9.028;2023-05-16T15:41:45;13.40;99.90
3790;DHT22;1910;49.042;9.028;2023-05-16T15:46:36;13.40;99.90
3790;DHT22;1910;49.042;9.028;2023-05-16T15:49:02;13.40;99.90
3790;DHT22;1910;49.042;9.028;2023-05-16T15:53:55;13.50;99.90
3790;DHT22;1910;49.042;9.028;2023-05-16T15:56:20;13.40;99.90
3790;DHT22;1910;49.042;9.028;2023-05-16T15:58:46;13.50;99.90
3790;DHT22;1910;49.042;9.028;2023-05-16T16:01:12;13.50;99.90
3790;DHT22;1910;49.042;9.028;2023-05-16T16:06:04;13.30;99.90
3790;DHT22;1910;49.042;9.028;2023-05-16T16:10:55;13.20;99.90
3790;DHT22;1910;49.042;9.028;2023-05-16T16:13:21;13.20;99.90
3790;DHT22;1910;49.042;9.028;2023-05-16T16:15:48;13.20;99.90
3790;DHT22;1910;49.042;9.028;2023-05-16T16:18:14;13.20;99.90
3790;DHT22;1910;49.042;9.028;2023-05-16T16:23:05;13.20;99.90
3790;DHT22;1910;49.042;9.028;2023-05-16T16:25:31;13.20;99.90
3790;DHT22;1910;49.042;9.028;2023-05-16T16:30:24;13.20;99.90
3790;DHT22;1910;49.042;9.028;2023-05-16T16:40:09;13.30;99.90
3790;DHT22;1910;49.042;9.028;2023-05-16T16:45:03;13.40;99.90
3790;DHT22;1910;49.042;9.028;2023-05-16T16:47:29;13.50;99.90
3790;DHT22;1910;49.042;9.028;2023-05-16T16:49:56;13.60;99.90
3790;DHT22;1910;49.042;9.028;2023-05-16T16:52:22;13.60;99.90
3790;DHT22;1910;49.042;9.028;2023-05-16T16:54:47;13.60;99.90
3790;DHT22;1910;49.042;9.028;2023-05-16T16:57:13;13.60;99.90
3790;DHT22;1910;49.042;9.028;2023-05-16T16:59:38;13.60;99.90
3790;DHT22;1910;49.042;9.028;2023-05-16T17:02:04;13.60;99.90
3790;DHT22;1910;49.042;9.028;2023-05-16T17:04:30;13.60;99.90
3790;DHT22;1910;49.042;9.028;2023-05-16T17:06:56;13.60;99.90
3790;DHT22;1910;49.042;9.028;2023-05-16T17:09:22;13.60;99.90
3790;DHT22;1910;49.042;9.028;2023-05-16T17:11:49;13.70;99.90
3790;DHT22;1910;49.042;9.028;2023-05-16T17:16:41;13.60;99.90
3790;DHT22;1910;49.042;9.028;2023-05-16T17:19:09;13.50;99.90
3790;DHT22;1910;49.042;9.028;2023-05-16T17:21:37;13.50;99.90
3790;DHT22;1910;49.042;9.028;2023-05-16T17:24:05;13.50;99.90
3790;DHT22;1910;49.042;9.028;2023-05-16T17:26:31;13.50;99.90
3790;DHT22;1910;49.042;9.028;2023-05-16T17:33:52;13.20;99.90
3790;DHT22;1910;49.042;9.028;2023-05-16T17:36:18;13.10;99.90
3790;DHT22;1910;49.042;9.028;2023-05-16T17:38:44;13.00;99.90
3790;DHT22;1910;49.042;9.028;2023-05-16T17:41:09;13.00;99.90
3790;DHT22;1910;49.042;9.028;2023-05-16T17:43:35;12.80;99.90
3790;DHT22;1910;49.042;9.028;2023-05-16T17:46:01;12.70;99.90
3790;DHT22;1910;49.042;9.028;2023-05-16T17:48:26;12.60;99.90
3790;DHT22;1910;49.042;9.028;2023-05-16T17:50:52;12.50;99.90
3790;DHT22;1910;49.042;9.028;2023-05-16T17:58:10;12.30;99.90
3790;DHT22;1910;49.042;9.028;2023-05-16T18:00:36;12.20;99.90
3790;DHT22;1910;49.042;9.028;2023-05-16T18:03:03;12.10;99.90
3790;DHT22;1910;49.042;9.028;2023-05-16T18:05:29;12.10;99.90
3790;DHT22;1910;49.042;9.028;2023-05-16T18:07:54;12.00;99.90
3790;DHT22;1910;49.042;9.028;2023-05-16T18:10:21;11.90;99.90
3790;DHT22;1910;49.042;9.028;2023-05-16T18:12:46;11.90;99.90